createdAt,value
2022-08-22T00:01:53.159Z,19.32
2022-08-22T00:04:57.969Z,19.63
2022-08-22T00:08:04.412Z,19.36
2022-08-22T00:11:09.335Z,19.60
2022-08-22T00:14:17.327Z,19.64
2022-08-22T00:17:41.409Z,19.60
2022-08-22T00:20:45.798Z,19.58
2022-08-22T00:23:50.872Z,19.48
2022-08-22T00:26:55.373Z,19.49
2022-08-22T00:30:00.705Z,19.64
2022-08-22T00:33:15.026Z,19.49
2022-08-22T00:36:22.985Z,19.45
2022-08-22T00:39:28.109Z,19.61
2022-08-22T00:43:01.017Z,19.66
2022-08-22T00:46:11.105Z,19.51
2022-08-22T00:49:38.659Z,19.65
2022-08-22T00:53:18.360Z,19.45
2022-08-22T00:56:55.648Z,19.66
2022-08-22T01:00:12.280Z,19.51
2022-08-22T01:03:27.120Z,19.44
2022-08-22T01:06:37.512Z,19.61
2022-08-22T01:09:46.452Z,19.61
2022-08-22T01:12:58.156Z,19.61
2022-08-22T01:16:05.514Z,19.59
2022-08-22T01:19:20.114Z,19.19
2022-08-22T01:22:36.363Z,19.44
2022-08-22T01:26:05.461Z,19.55
2022-08-22T01:29:49.861Z,19.50
2022-08-22T01:33:20.900Z,19.39
2022-08-22T01:36:47.896Z,19.37
2022-08-22T01:40:03.732Z,18.88
2022-08-22T01:43:10.831Z,19.21
2022-08-22T01:46:23.090Z,19.12
2022-08-22T01:49:28.137Z,19.00
2022-08-22T01:52:35.820Z,18.69
2022-08-22T01:55:42.126Z,18.78
2022-08-22T01:58:45.670Z,18.75
2022-08-22T02:02:10.367Z,18.66
2022-08-22T02:05:19.740Z,18.65
2022-08-22T02:08:28.498Z,18.66
2022-08-22T02:11:39.026Z,18.53
2022-08-22T02:14:43.086Z,18.28
2022-08-22T02:18:00.501Z,18.48
2022-08-22T02:21:06.267Z,18.34
2022-08-22T02:24:19.479Z,18.21
2022-08-22T02:27:27.159Z,17.94
2022-08-22T02:30:45.676Z,18.22
2022-08-22T02:33:51.473Z,18.41
2022-08-22T02:36:58.102Z,18.46
2022-08-22T02:40:08.020Z,18.15
2022-08-22T02:43:13.518Z,18.46
2022-08-22T02:46:23.967Z,18.35
2022-08-22T02:49:29.372Z,18.25
2022-08-22T02:52:39.938Z,18.18
2022-08-22T02:55:51.559Z,18.38
2022-08-22T02:58:59.190Z,18.19
2022-08-22T03:02:25.047Z,18.59
2022-08-22T03:05:29.548Z,18.53
2022-08-22T03:08:33.486Z,18.48
2022-08-22T03:11:39.335Z,18.59
2022-08-22T03:14:44.324Z,18.65
2022-08-22T03:17:50.360Z,18.58
2022-08-22T03:20:54.820Z,18.61
2022-08-22T03:23:59.211Z,18.66
2022-08-22T03:27:06.210Z,18.32
2022-08-22T03:30:12.455Z,18.41
2022-08-22T03:33:19.643Z,18.35
2022-08-22T03:36:26.741Z,18.40
2022-08-22T03:39:58.683Z,18.06
2022-08-22T03:43:12.777Z,18.01
2022-08-22T03:46:34.697Z,18.26
2022-08-22T03:49:55.662Z,18.13
2022-08-22T03:53:42.239Z,18.25
2022-08-22T03:57:20.340Z,17.90
2022-08-22T04:00:33.477Z,18.16
2022-08-22T04:04:14.382Z,18.16
2022-08-22T04:07:38.220Z,18.12
2022-08-22T04:11:14.204Z,18.10
2022-08-22T04:14:25.116Z,17.81
2022-08-22T04:17:37.604Z,18.05
2022-08-22T04:21:07.187Z,18.07
2022-08-22T04:24:32.198Z,17.99
2022-08-22T04:27:38.892Z,17.76
2022-08-22T04:30:43.830Z,18.00
2022-08-22T04:33:50.468Z,17.76
2022-08-22T04:36:56.228Z,17.93
2022-08-22T04:40:00.959Z,17.98
2022-08-22T04:43:06.527Z,17.99
2022-08-22T04:46:11.846Z,17.97
2022-08-22T04:49:20.314Z,17.97
2022-08-22T04:52:25.493Z,17.98
2022-08-22T04:55:34.423Z,17.71
2022-08-22T04:58:42.870Z,17.97
2022-08-22T05:01:47.282Z,17.96
2022-08-22T05:04:53.573Z,17.53
2022-08-22T05:07:57.441Z,17.94
2022-08-22T05:11:01.060Z,17.96
2022-08-22T05:14:05.052Z,17.57
2022-08-22T05:17:08.919Z,17.97
2022-08-22T05:20:14.340Z,17.98
2022-08-22T05:23:18.703Z,17.96
2022-08-22T05:26:21.295Z,17.61
2022-08-22T05:29:25.513Z,17.95
2022-08-22T05:32:29.935Z,17.81
2022-08-22T05:35:37.111Z,17.83
2022-08-22T05:38:40.311Z,17.90
2022-08-22T05:41:43.462Z,17.89
2022-08-22T05:44:46.107Z,17.92
2022-08-22T05:47:50.150Z,17.82
2022-08-22T05:50:56.689Z,18.12
2022-08-22T05:54:07.195Z,18.22
2022-08-22T05:57:11.926Z,18.55
2022-08-22T06:00:19.145Z,18.87
2022-08-22T06:03:26.788Z,19.07
2022-08-22T06:06:31.156Z,19.19
2022-08-22T06:09:38.610Z,19.16
2022-08-22T06:12:43.297Z,18.99
2022-08-22T06:15:48.174Z,19.04
2022-08-22T06:18:53.961Z,19.03
2022-08-22T06:21:57.995Z,19.07
2022-08-22T06:25:06.386Z,19.09
2022-08-22T06:28:10.146Z,18.93
2022-08-22T06:31:14.513Z,19.22
2022-08-22T06:34:18.439Z,19.14
2022-08-22T06:37:24.610Z,19.11
2022-08-22T06:40:27.408Z,19.22
2022-08-22T06:43:36.466Z,19.39
2022-08-22T06:46:39.052Z,19.48
2022-08-22T06:49:41.615Z,19.77
2022-08-22T06:52:51.186Z,19.95
2022-08-22T06:55:55.631Z,20.07
2022-08-22T06:58:59.928Z,20.04
2022-08-22T07:02:05.044Z,20.04
2022-08-22T07:05:08.509Z,20.23
2022-08-22T07:08:14.503Z,20.27
2022-08-22T07:11:21.696Z,20.44
2022-08-22T07:14:29.916Z,20.56
2022-08-22T07:17:34.043Z,20.75
2022-08-22T07:20:41.933Z,20.69
2022-08-22T07:23:48.025Z,20.89
2022-08-22T07:26:56.940Z,20.70
2022-08-22T07:30:03.179Z,21.13
2022-08-22T07:33:17.724Z,21.18
2022-08-22T07:36:31.951Z,21.35
2022-08-22T07:39:37.635Z,21.35
2022-08-22T07:42:42.871Z,21.62
2022-08-22T07:45:50.587Z,21.76
2022-08-22T07:49:08.723Z,21.57
2022-08-22T07:52:13.516Z,21.56
2022-08-22T07:55:19.706Z,21.93
2022-08-22T07:58:22.544Z,21.95
2022-08-22T08:01:25.413Z,21.95
2022-08-22T08:04:30.283Z,21.90
2022-08-22T08:07:32.876Z,22.03
2022-08-22T08:10:39.399Z,22.21
2022-08-22T08:13:43.142Z,22.29
2022-08-22T08:16:50.702Z,22.52
2022-08-22T08:19:54.435Z,22.66
2022-08-22T08:22:58.390Z,22.96
2022-08-22T08:26:04.354Z,22.81
2022-08-22T08:29:07.478Z,23.07
2022-08-22T08:32:11.032Z,23.22
2022-08-22T08:35:19.744Z,23.15
2022-08-22T08:38:24.168Z,23.21
2022-08-22T08:41:57.355Z,23.11
2022-08-22T08:45:14.096Z,23.60
2022-08-22T08:48:34.801Z,23.79
2022-08-22T08:52:04.192Z,23.71
2022-08-22T08:55:21.768Z,23.73
2022-08-22T08:58:40.710Z,23.84
2022-08-22T09:02:02.476Z,23.93
2022-08-22T09:05:40.592Z,23.59
2022-08-22T09:09:03.679Z,23.88
2022-08-22T09:12:19.156Z,23.94
2022-08-22T09:15:42.751Z,24.22
2022-08-22T09:19:17.189Z,24.44
2022-08-22T09:22:25.862Z,24.52
2022-08-22T09:25:38.630Z,24.58
2022-08-22T09:28:48.543Z,24.52
2022-08-22T09:31:58.344Z,24.56
2022-08-22T09:35:05.760Z,24.78
2022-08-22T09:38:26.161Z,24.92
2022-08-22T09:41:36.796Z,24.68
2022-08-22T09:44:43.803Z,24.94
2022-08-22T09:47:48.879Z,24.86
2022-08-22T09:51:04.872Z,24.83
2022-08-22T09:54:31.633Z,24.69
2022-08-22T09:57:37.792Z,25.10
2022-08-22T10:00:44.257Z,25.07
2022-08-22T10:04:25.539Z,24.85
2022-08-22T10:07:36.241Z,24.61
2022-08-22T10:10:55.801Z,24.55
2022-08-22T10:14:02.204Z,24.81
2022-08-22T10:17:08.504Z,24.67
2022-08-22T10:20:14.827Z,24.79
2022-08-22T10:23:21.274Z,25.20
2022-08-22T10:26:30.214Z,25.06
2022-08-22T10:29:39.519Z,25.48
2022-08-22T10:32:44.511Z,25.15
2022-08-22T10:35:59.807Z,25.12
2022-08-22T10:39:09.579Z,25.07
2022-08-22T10:42:20.209Z,25.35
2022-08-22T10:45:35.976Z,25.61
2022-08-22T10:48:46.576Z,25.50
2022-08-22T10:51:52.755Z,25.76
2022-08-22T10:55:00.365Z,25.50
2022-08-22T10:58:04.646Z,25.54
2022-08-22T11:01:37.090Z,25.86
2022-08-22T11:04:37.698Z,25.74
2022-08-22T11:07:48.539Z,25.44
2022-08-22T11:11:13.842Z,26.07
2022-08-22T11:14:31.152Z,26.34
2022-08-22T11:18:00.679Z,26.65
2022-08-22T11:21:07.332Z,26.25
2022-08-22T11:24:17.150Z,27.01
2022-08-22T11:27:39.688Z,27.18
2022-08-22T11:30:46.388Z,26.66
2022-08-22T11:33:54.024Z,26.69
2022-08-22T11:36:57.665Z,26.77
2022-08-22T11:40:05.384Z,26.54
2022-08-22T11:43:28.735Z,26.85
2022-08-22T11:46:36.515Z,26.40
2022-08-22T11:49:45.675Z,26.43
2022-08-22T11:52:56.631Z,26.71
2022-08-22T11:56:11.330Z,26.40
2022-08-22T11:59:22.694Z,26.40
2022-08-22T12:02:27.633Z,26.67
2022-08-22T12:05:35.403Z,26.97
2022-08-22T12:09:17.945Z,27.16
2022-08-22T12:12:32.519Z,27.02
2022-08-22T12:15:40.480Z,27.05
2022-08-22T12:18:52.872Z,27.24
2022-08-22T12:22:17.772Z,27.32
2022-08-22T12:25:26.161Z,27.30
2022-08-22T12:28:32.035Z,27.22
2022-08-22T12:32:28.211Z,27.04
2022-08-22T12:35:36.028Z,27.43
2022-08-22T12:38:47.995Z,27.62
2022-08-22T12:42:15.982Z,27.27
2022-08-22T12:45:25.261Z,26.80
2022-08-22T12:48:45.776Z,26.78
2022-08-22T12:52:04.440Z,27.11
2022-08-22T12:55:20.385Z,27.47
2022-08-22T12:58:33.991Z,27.63
2022-08-22T13:01:41.346Z,27.51
2022-08-22T13:04:52.695Z,27.45
2022-08-22T13:07:56.071Z,27.24
2022-08-22T13:11:01.180Z,27.25
2022-08-22T13:14:03.969Z,27.50
2022-08-22T13:17:10.172Z,27.84
2022-08-22T13:20:30.975Z,28.27
2022-08-22T13:23:39.826Z,28.54
2022-08-22T13:26:49.098Z,28.54
2022-08-22T13:29:55.359Z,28.17
2022-08-22T13:33:04.477Z,27.17
2022-08-22T13:36:15.296Z,27.10
2022-08-22T13:39:24.391Z,27.23
2022-08-22T13:42:30.426Z,27.13
2022-08-22T13:45:33.580Z,27.30
2022-08-22T13:48:47.193Z,27.51
2022-08-22T13:51:55.029Z,27.46
2022-08-22T13:55:00.354Z,27.23
2022-08-22T13:58:06.959Z,27.23
2022-08-22T14:01:19.740Z,27.56
2022-08-22T14:04:34.843Z,27.57
2022-08-22T14:07:44.444Z,27.56
2022-08-22T14:10:50.522Z,27.68
2022-08-22T14:13:59.154Z,27.68
2022-08-22T14:17:01.804Z,27.63
2022-08-22T14:20:07.695Z,27.74
2022-08-22T14:23:18.484Z,27.77
2022-08-22T14:26:32.666Z,27.63
2022-08-22T14:29:40.475Z,27.50
2022-08-22T14:32:45.225Z,27.70
2022-08-22T14:35:52.833Z,27.55
2022-08-22T14:39:00.033Z,27.75
2022-08-22T14:42:10.104Z,27.87
2022-08-22T14:45:16.676Z,27.86
2022-08-22T14:48:31.447Z,28.00
2022-08-22T14:51:34.825Z,28.12
2022-08-22T14:54:39.350Z,27.82
2022-08-22T14:57:47.836Z,27.93
2022-08-22T15:00:51.310Z,27.70
2022-08-22T15:03:55.023Z,27.73
2022-08-22T15:06:58.903Z,27.49
2022-08-22T15:10:06.122Z,27.42
2022-08-22T15:13:09.029Z,26.91
2022-08-22T15:16:16.061Z,27.18
2022-08-22T15:19:25.497Z,27.29
2022-08-22T15:22:29.935Z,27.27
2022-08-22T15:25:35.092Z,27.09
2022-08-22T15:28:52.619Z,27.24
2022-08-22T15:31:58.356Z,27.36
2022-08-22T15:35:05.345Z,27.20
2022-08-22T15:38:11.269Z,27.19
2022-08-22T15:41:39.009Z,26.95
2022-08-22T15:44:44.215Z,27.23
2022-08-22T15:47:49.216Z,27.13
2022-08-22T15:50:59.390Z,27.16
2022-08-22T15:54:16.117Z,27.14
2022-08-22T15:57:29.254Z,27.14
2022-08-22T16:00:34.062Z,26.78
2022-08-22T16:03:38.176Z,26.69
2022-08-22T16:06:42.611Z,26.86
2022-08-22T16:09:48.087Z,26.82
2022-08-22T16:13:10.416Z,26.70
2022-08-22T16:16:55.314Z,26.71
2022-08-22T16:20:31.405Z,26.91
2022-08-22T16:23:35.168Z,26.89
2022-08-22T16:26:38.253Z,26.54
2022-08-22T16:29:42.327Z,26.81
2022-08-22T16:32:55.321Z,26.44
2022-08-22T16:36:36.986Z,26.73
2022-08-22T16:39:40.737Z,26.28
2022-08-22T16:42:44.773Z,26.58
2022-08-22T16:45:48.849Z,26.33
2022-08-22T16:48:54.762Z,26.30
2022-08-22T16:52:34.512Z,26.63
2022-08-22T16:55:51.264Z,26.40
2022-08-22T16:59:22.453Z,26.22
2022-08-22T17:02:38.454Z,26.25
2022-08-22T17:05:47.723Z,26.17
2022-08-22T17:08:55.820Z,26.12
2022-08-22T17:12:03.495Z,26.05
2022-08-22T17:15:12.980Z,25.98
2022-08-22T17:18:27.955Z,25.95
2022-08-22T17:21:31.387Z,25.93
2022-08-22T17:24:36.932Z,25.82
2022-08-22T17:27:42.300Z,25.65
2022-08-22T17:30:51.357Z,25.93
2022-08-22T17:34:05.422Z,25.78
2022-08-22T17:37:11.458Z,25.73
2022-08-22T17:40:24.069Z,25.75
2022-08-22T17:43:48.634Z,25.73
2022-08-22T17:46:54.179Z,25.51
2022-08-22T17:50:03.159Z,25.51
2022-08-22T17:53:08.429Z,25.34
2022-08-22T17:56:15.435Z,25.29
2022-08-22T17:59:21.060Z,25.16
2022-08-22T18:02:26.468Z,24.81
2022-08-22T18:05:32.725Z,24.87
2022-08-22T18:09:13.262Z,24.96
2022-08-22T18:12:05.784Z,24.71
2022-08-22T18:15:10.285Z,24.61
2022-08-22T18:18:15.873Z,24.84
2022-08-22T18:21:26.163Z,24.39
2022-08-22T18:24:33.083Z,24.52
2022-08-22T18:27:38.051Z,24.54
2022-08-22T18:30:51.555Z,24.44
2022-08-22T18:33:58.680Z,24.25
2022-08-22T18:37:07.162Z,24.31
2022-08-22T18:40:12.789Z,23.74
2022-08-22T18:43:17.782Z,23.63
2022-08-22T18:46:28.884Z,24.04
2022-08-22T18:49:43.209Z,23.91
2022-08-22T18:52:47.211Z,23.75
2022-08-22T18:55:57.033Z,23.37
2022-08-22T18:59:05.996Z,23.62
2022-08-22T19:02:22.561Z,23.68
2022-08-22T19:05:33.400Z,23.33
2022-08-22T19:09:00.383Z,23.21
2022-08-22T19:12:06.398Z,23.54
2022-08-22T19:15:19.082Z,23.42
2022-08-22T19:18:36.182Z,23.49
2022-08-22T19:21:56.716Z,23.50
2022-08-22T19:25:09.076Z,23.49
2022-08-22T19:28:28.351Z,23.43
2022-08-22T19:31:46.346Z,23.60
2022-08-22T19:34:49.140Z,23.22
2022-08-22T19:37:52.960Z,23.59
2022-08-22T19:40:58.340Z,23.58
2022-08-22T19:44:01.292Z,23.29
2022-08-22T19:47:08.192Z,23.34
2022-08-22T19:50:25.066Z,23.41
2022-08-22T19:53:32.496Z,23.29
2022-08-22T19:56:56.193Z,22.98
2022-08-22T20:00:01.032Z,23.01
2022-08-22T20:03:07.431Z,22.97
2022-08-22T20:06:33.805Z,23.16
2022-08-22T20:09:41.720Z,23.12
2022-08-22T20:12:59.480Z,23.05
2022-08-22T20:16:18.199Z,23.01
2022-08-22T20:19:22.338Z,22.96
2022-08-22T20:22:26.088Z,22.53
2022-08-22T20:25:42.488Z,22.79
2022-08-22T20:28:48.814Z,22.76
2022-08-22T20:31:56.703Z,22.60
2022-08-22T20:35:01.860Z,22.79
2022-08-22T20:38:07.243Z,22.75
2022-08-22T20:41:16.122Z,22.34
2022-08-22T20:44:24.464Z,22.75
2022-08-22T20:47:40.745Z,22.39
2022-08-22T20:50:45.016Z,22.63
2022-08-22T20:53:52.116Z,22.55
2022-08-22T20:56:56.522Z,22.62
2022-08-22T21:00:07.253Z,22.52
2022-08-22T21:03:12.390Z,22.38
2022-08-22T21:06:16.257Z,22.33
2022-08-22T21:09:37.706Z,22.59
2022-08-22T21:12:40.340Z,22.59
2022-08-22T21:15:45.669Z,22.56
2022-08-22T21:18:49.108Z,22.58
2022-08-22T21:21:51.800Z,22.34
2022-08-22T21:24:55.226Z,22.63
2022-08-22T21:27:59.564Z,22.59
2022-08-22T21:31:11.455Z,22.35
2022-08-22T21:34:14.270Z,22.37
2022-08-22T21:37:18.293Z,22.30
2022-08-22T21:40:22.776Z,22.32
2022-08-22T21:43:30.632Z,22.21
2022-08-22T21:46:34.734Z,21.95
2022-08-22T21:49:37.413Z,21.88
2022-08-22T21:52:41.111Z,22.03
2022-08-22T21:55:44.447Z,22.13
2022-08-22T21:58:47.258Z,21.89
2022-08-22T22:01:51.332Z,21.87
2022-08-22T22:04:54.287Z,21.81
2022-08-22T22:07:57.013Z,21.79
2022-08-22T22:11:00.891Z,21.50
2022-08-22T22:14:03.704Z,21.42
2022-08-22T22:17:07.884Z,21.52
2022-08-22T22:20:11.180Z,21.43
2022-08-22T22:23:13.923Z,21.32
2022-08-22T22:26:16.589Z,20.66
2022-08-22T22:29:19.328Z,20.96
2022-08-22T22:32:23.385Z,20.76
2022-08-22T22:35:26.007Z,20.73
2022-08-22T22:38:28.624Z,21.10
2022-08-22T22:41:33.142Z,21.02
2022-08-22T22:44:35.870Z,20.93
2022-08-22T22:47:39.889Z,21.05
2022-08-22T22:50:44.074Z,21.08
2022-08-22T22:53:46.907Z,21.14
2022-08-22T22:56:49.536Z,21.02
2022-08-22T22:59:52.191Z,21.18
2022-08-22T23:02:56.662Z,21.17
2022-08-22T23:05:59.385Z,21.13
2022-08-22T23:09:02.056Z,21.11
2022-08-22T23:12:05.305Z,21.13
2022-08-22T23:15:08.695Z,21.12
2022-08-22T23:18:12.675Z,20.67
2022-08-22T23:21:16.952Z,20.99
2022-08-22T23:24:19.544Z,20.89
2022-08-22T23:27:22.208Z,20.52
2022-08-22T23:30:24.833Z,20.87
2022-08-22T23:33:29.045Z,20.65
2022-08-22T23:36:32.820Z,20.85
2022-08-22T23:39:35.899Z,20.82
2022-08-22T23:42:38.509Z,20.85
2022-08-22T23:45:41.188Z,20.84
2022-08-22T23:48:45.188Z,20.81
2022-08-22T23:51:48.598Z,20.65
2022-08-22T23:54:54.320Z,20.72
2022-08-22T23:57:58.446Z,20.41
